Decoded Metar for KCLI (CLINTONVILLE in WI, USA) (IATA:CLI) | Meteo·Mobile Aviation Weather
aviador You're here:

KCLI Decoded Metar

CLINTONVILLE in WI, USA
Report Time2019-02-16 06:55:00
UTC Time2019-02-16 06:56:32
Flight Rules vfr VFR
WindCalm
Visibility9999 m
Phenomena:N/A
Clouds:N/A
Expected CloudBase > 800 ft AGL from Temp-Dew spread
CeilingNone
Temp-17°C (ISA -30)
Dew Point-19°C (85% RH)
AAT-20.5°C
QNH1018 hPa
Density Alt-3,186 ft
Elevation820 ft
Report Wrong Elevation
Raw Report
KCLI 160655Z AUTO 00000KT 10SM CLR M17/M19 A3007 RMK AO2 T11671190
410561188=

Extra information for KCLI:More info

Metar Taf Metar & Taf Last 4 Metars F.Rules Stats Wind Profile Meteogram Temp Stats Airport Information Weather charts Add Link Nearby VenuesMetar ALERT Operation Metar Decoded Social comments

AIRNAV info for KCLI